Irvington, Alabama
Current Conditions -  °F | °C
As of 4:56 PM on Friday 28 Nov 2014 (Local Time) from KMOB Reporting Station
Clear Clear  
Wind Chill: 50°   Ceiling: Unl
Heat Index: 50°   Visibility: 10mi
Dew Point: 33°   Wind: 6mph
Humidity: 52%   Direction: 160°SSE
Pressure: 30.3"   Gusts: NA
Location:  30.51°N, 88.23°W
Report Text: KMOB 282256Z 16005KT 10SM CLR 10/01 A3030 RMK AO2 SLP261 T01000006
Loading
Personal Weather Stations






























Interactive Weather Map New forecast layout! Learn more

10-Day Weather Forecast

Advertisements
Track Severe Weather on mobile